Warren, MI (48088)

12:05 AM EST on February 10, 2016 (GMT -0500)
Common & Hoover Road | | Change Station
CLOSE
Current Station
Personal Weather Station
Location: Warren, MI
Elevation: 684 ft
Nearby Weather Stations

Elev 684 ft 42.51 °N, 83.01 °W | Updated 36 seconds ago

Snow
Snow
25.3 °F
Feels Like 25 °F
N
0.9
Wind Variable Wind from West
Gusts 2.5 mph

Today
High -- | Low -- °F
--% Chance of Precip.
Yesterday
High -- | Low -- °F
Precip. -- in
Pressure 29.73 in
Visibility 3.0 miles
Clouds Scattered Clouds 2200 ft
Scattered Clouds 3500 ft
Overcast 4300 ft
Windchill 25 °F
Dew Point 16 °F
Humidity 69%
Rainfall 0.00 in
Snow Depth Not available.
7:35 AM 5:56 PM
Waxing Crescent, 3% visible
METAR KDET 100453Z 29010KT 3SM -SN SCT022 SCT035 OVC043 M04/M08 A2970 RMK AO2 SFC VIS 5 SNE20B45 SLP065 P0000 T10391078 400171039
Pressure 29.73 in
Visibility 3.0 miles
Clouds Scattered Clouds 2200 ft
Scattered Clouds 3500 ft
Overcast 4300 ft
Windchill 25 °F
Dew Point 16 °F
Humidity 69%
Rainfall 0.00 in
Snow Depth Not available.
7:35 AM 5:56 PM
Waxing Crescent, 3% visible
METAR KDET 100453Z 29010KT 3SM -SN SCT022 SCT035 OVC043 M04/M08 A2970 RMK AO2 SFC VIS 5 SNE20B45 SLP065 P0000 T10391078 400171039

10-Day Weather Forecast

Almanac

Astronomy

Feb. 10, 2016 Rise Set
Actual Time
Civil Twilight
Nautical Twilight
Astronomical Twilight
Moon
Length of Visible Light
Length of Day
Tomorrow will be .
, % of the Moon is Illuminated

Today's Extremes

State Highs State Lows

Community

WunderPhotos

Upload Photos

1,891,818 photos uploaded!

WunderBlog® & News

Nearby

Air Quality

  Air Quality AQ Index Pollutant
Not available.

Snow Depth

Station Depth Elevation

Earthquake Activity

City Distance Mag. Time & Date
Minimum magnitude displayed is 2.5.

Coastal Water Temperatures

Place Temperature

Stations

Nearby Weather Stations

Station Location Temp. Windchill Dew Point Humidity Wind Precip. Elev Updated Type
                   

Watches & Warnings

There are currently no watches in effect.